sensor_id;sensor_type;location;lat;lon;timestamp;pressure;altitude;pressure_sealevel;temperature;humidity
69306;BME280;56427;51.580;4.656;2022-12-10T00:01:08;100847.63;;;-2.52;100.00
69306;BME280;56427;51.580;4.656;2022-12-10T00:03:35;100845.56;;;-2.39;100.00
69306;BME280;56427;51.580;4.656;2022-12-10T00:06:06;100846.72;;;-2.49;100.00
69306;BME280;56427;51.580;4.656;2022-12-10T00:08:32;100844.09;;;-2.46;100.00
69306;BME280;56427;51.580;4.656;2022-12-10T00:10:58;100850.38;;;-2.58;100.00
69306;BME280;56427;51.580;4.656;2022-12-10T00:13:23;100853.25;;;-2.41;100.00
69306;BME280;56427;51.580;4.656;2022-12-10T00:15:49;100855.66;;;-2.36;100.00
69306;BME280;56427;51.580;4.656;2022-12-10T00:18:14;100852.94;;;-2.30;100.00
69306;BME280;56427;51.580;4.656;2022-12-10T00:20:40;100859.03;;;-2.35;100.00
69306;BME280;56427;51.580;4.656;2022-12-10T00:23:05;100855.09;;;-2.46;100.00
69306;BME280;56427;51.580;4.656;2022-12-10T00:25:34;100849.50;;;-2.29;100.00
69306;BME280;56427;51.580;4.656;2022-12-10T00:27:59;100853.03;;;-2.33;100.00
69306;BME280;56427;51.580;4.656;2022-12-10T00:30:25;100852.03;;;-2.29;100.00
69306;BME280;56427;51.580;4.656;2022-12-10T00:32:50;100857.41;;;-2.38;100.00
69306;BME280;56427;51.580;4.656;2022-12-10T00:35:15;100853.16;;;-2.37;100.00
69306;BME280;56427;51.580;4.656;2022-12-10T00:37:41;100867.28;;;-2.29;100.00
69306;BME280;56427;51.580;4.656;2022-12-10T00:40:07;100860.97;;;-2.14;100.00
69306;BME280;56427;51.580;4.656;2022-12-10T00:42:32;100851.88;;;-2.23;100.00
69306;BME280;56427;51.580;4.656;2022-12-10T00:44:58;100856.22;;;-2.26;100.00
69306;BME280;56427;51.580;4.656;2022-12-10T00:47:24;100855.34;;;-2.25;100.00
69306;BME280;56427;51.580;4.656;2022-12-10T00:49:49;100853.41;;;-2.17;100.00
69306;BME280;56427;51.580;4.656;2022-12-10T00:52:14;100849.56;;;-2.02;100.00
69306;BME280;56427;51.580;4.656;2022-12-10T00:54:40;100851.06;;;-2.23;100.00
69306;BME280;56427;51.580;4.656;2022-12-10T00:57:06;100846.88;;;-2.26;100.00
69306;BME280;56427;51.580;4.656;2022-12-10T00:59:31;100843.72;;;-2.34;100.00
69306;BME280;56427;51.580;4.656;2022-12-10T01:01:56;100844.50;;;-2.30;100.00
69306;BME280;56427;51.580;4.656;2022-12-10T01:04:22;100837.78;;;-2.33;100.00
69306;BME280;56427;51.580;4.656;2022-12-10T01:06:49;100837.94;;;-2.39;100.00
69306;BME280;56427;51.580;4.656;2022-12-10T01:09:19;100848.03;;;-2.36;100.00
69306;BME280;56427;51.580;4.656;2022-12-10T01:11:46;100847.28;;;-2.39;100.00
69306;BME280;56427;51.580;4.656;2022-12-10T01:14:18;100850.66;;;-2.39;100.00
69306;BME280;56427;51.580;4.656;2022-12-10T01:16:44;100857.13;;;-2.29;100.00
69306;BME280;56427;51.580;4.656;2022-12-10T01:19:10;100845.31;;;-2.30;100.00
69306;BME280;56427;51.580;4.656;2022-12-10T01:21:36;100853.94;;;-2.35;100.00
69306;BME280;56427;51.580;4.656;2022-12-10T01:24:03;100853.47;;;-2.48;100.00
69306;BME280;56427;51.580;4.656;2022-12-10T01:26:31;100848.16;;;-2.41;100.00
69306;BME280;56427;51.580;4.656;2022-12-10T01:28:58;100858.16;;;-2.34;100.00
69306;BME280;56427;51.580;4.656;2022-12-10T01:33:50;100862.75;;;-2.47;100.00
69306;BME280;56427;51.580;4.656;2022-12-10T01:36:18;100865.81;;;-2.36;100.00
69306;BME280;56427;51.580;4.656;2022-12-10T01:38:45;100862.66;;;-2.44;100.00
69306;BME280;56427;51.580;4.656;2022-12-10T01:41:24;100864.34;;;-2.43;100.00
69306;BME280;56427;51.580;4.656;2022-12-10T01:46:26;100875.34;;;-2.43;100.00
69306;BME280;56427;51.580;4.656;2022-12-10T01:48:52;100882.72;;;-2.33;100.00
69306;BME280;56427;51.580;4.656;2022-12-10T01:51:18;100883.66;;;-2.37;100.00
69306;BME280;56427;51.580;4.656;2022-12-10T01:53:44;100878.97;;;-2.22;100.00
69306;BME280;56427;51.580;4.656;2022-12-10T01:56:13;100872.63;;;-2.36;100.00
69306;BME280;56427;51.580;4.656;2022-12-10T01:58:40;100881.16;;;-2.39;100.00
69306;BME280;56427;51.580;4.656;2022-12-10T02:01:14;100873.91;;;-2.51;100.00
69306;BME280;56427;51.580;4.656;2022-12-10T02:04:11;100870.34;;;-2.46;100.00
69306;BME280;56427;51.580;4.656;2022-12-10T02:07:02;100876.94;;;-2.38;100.00
69306;BME280;56427;51.580;4.656;2022-12-10T02:09:44;100886.13;;;-2.34;100.00
69306;BME280;56427;51.580;4.656;2022-12-10T02:12:31;100887.97;;;-2.39;100.00
69306;BME280;56427;51.580;4.656;2022-12-10T02:15:10;100891.38;;;-2.41;100.00
69306;BME280;56427;51.580;4.656;2022-12-10T02:18:05;100882.19;;;-2.45;100.00
69306;BME280;56427;51.580;4.656;2022-12-10T02:20:46;100891.38;;;-2.41;100.00
69306;BME280;56427;51.580;4.656;2022-12-10T02:23:18;100890.75;;;-2.49;100.00
69306;BME280;56427;51.580;4.656;2022-12-10T02:26:32;100890.78;;;-2.50;100.00
69306;BME280;56427;51.580;4.656;2022-12-10T02:28:38;100892.59;;;-2.54;100.00
69306;BME280;56427;51.580;4.656;2022-12-10T02:31:05;100893.22;;;-2.46;100.00
69306;BME280;56427;51.580;4.656;2022-12-10T02:33:33;100897.88;;;-2.62;100.00
69306;BME280;56427;51.580;4.656;2022-12-10T02:36:01;100888.47;;;-2.58;100.00
69306;BME280;56427;51.580;4.656;2022-12-10T02:38:29;100893.22;;;-2.46;100.00
69306;BME280;56427;51.580;4.656;2022-12-10T02:41:02;100900.25;;;-2.55;100.00
69306;BME280;56427;51.580;4.656;2022-12-10T02:43:30;100894.81;;;-2.42;100.00
69306;BME280;56427;51.580;4.656;2022-12-10T02:45:58;100897.06;;;-2.32;100.00
69306;BME280;56427;51.580;4.656;2022-12-10T02:48:25;100893.41;;;-2.53;100.00
69306;BME280;56427;51.580;4.656;2022-12-10T02:50:51;100895.59;;;-2.39;100.00
69306;BME280;56427;51.580;4.656;2022-12-10T02:53:16;100890.50;;;-2.39;100.00
69306;BME280;56427;51.580;4.656;2022-12-10T03:04:16;100884.06;;;-2.51;100.00
69306;BME280;56427;51.580;4.656;2022-12-10T03:06:47;100883.09;;;-2.47;100.00
69306;BME280;56427;51.580;4.656;2022-12-10T03:09:23;100886.16;;;-2.36;100.00
69306;BME280;56427;51.580;4.656;2022-12-10T03:11:56;100883.94;;;-2.47;100.00
69306;BME280;56427;51.580;4.656;2022-12-10T03:14:27;100879.50;;;-2.40;100.00
69306;BME280;56427;51.580;4.656;2022-12-10T03:16:57;100877.25;;;-2.51;100.00
69306;BME280;56427;51.580;4.656;2022-12-10T03:19:28;100876.53;;;-2.54;100.00
69306;BME280;56427;51.580;4.656;2022-12-10T03:21:56;100876.41;;;-2.50;100.00
69306;BME280;56427;51.580;4.656;2022-12-10T03:24:25;100878.69;;;-2.42;100.00
69306;BME280;56427;51.580;4.656;2022-12-10T03:26:52;100876.97;;;-2.40;100.00
69306;BME280;56427;51.580;4.656;2022-12-10T03:29:22;100872.63;;;-2.36;100.00
69306;BME280;56427;51.580;4.656;2022-12-10T03:31:50;100875.75;;;-2.27;100.00
69306;BME280;56427;51.580;4.656;2022-12-10T03:34:16;100870.53;;;-2.53;100.00
69306;BME280;56427;51.580;4.656;2022-12-10T03:36:43;100872.34;;;-2.57;100.00
69306;BME280;56427;51.580;4.656;2022-12-10T03:39:09;100873.78;;;-2.47;100.00
69306;BME280;56427;51.580;4.656;2022-12-10T03:41:35;100868.50;;;-2.41;100.00
69306;BME280;56427;51.580;4.656;2022-12-10T03:44:01;100873.00;;;-2.50;100.00
69306;BME280;56427;51.580;4.656;2022-12-10T03:46:29;100877.09;;;-2.45;100.00
69306;BME280;56427;51.580;4.656;2022-12-10T03:48:56;100885.25;;;-2.33;100.00
69306;BME280;56427;51.580;4.656;2022-12-10T03:51:21;100886.19;;;-2.37;100.00
69306;BME280;56427;51.580;4.656;2022-12-10T03:53:47;100886.47;;;-2.47;100.00
69306;BME280;56427;51.580;4.656;2022-12-10T03:56:19;100879.56;;;-2.42;100.00
69306;BME280;56427;51.580;4.656;2022-12-10T03:58:45;100877.19;;;-2.48;100.00
69306;BME280;56427;51.580;4.656;2022-12-10T04:01:11;100876.16;;;-2.42;100.00
69306;BME280;56427;51.580;4.656;2022-12-10T04:03:39;100873.78;;;-2.47;100.00
69306;BME280;56427;51.580;4.656;2022-12-10T04:06:08;100878.38;;;-2.30;100.00
69306;BME280;56427;51.580;4.656;2022-12-10T04:08:34;100878.41;;;-2.31;100.00
69306;BME280;56427;51.580;4.656;2022-12-10T04:11:09;100881.41;;;-2.47;100.00
69306;BME280;56427;51.580;4.656;2022-12-10T04:13:36;100886.03;;;-2.31;100.00
69306;BME280;56427;51.580;4.656;2022-12-10T04:16:21;100884.59;;;-2.40;100.00
69306;BME280;56427;51.580;4.656;2022-12-10T04:21:19;100882.63;;;-2.30;100.00
69306;BME280;56427;51.580;4.656;2022-12-10T04:24:03;100888.66;;;-2.34;100.00
69306;BME280;56427;51.580;4.656;2022-12-10T04:26:47;100894.75;;;-2.40;100.00
69306;BME280;56427;51.580;4.656;2022-12-10T04:29:29;100892.06;;;-2.35;100.00
69306;BME280;56427;51.580;4.656;2022-12-10T04:31:56;100887.16;;;-2.12;100.00
69306;BME280;56427;51.580;4.656;2022-12-10T04:34:23;100882.91;;;-2.11;100.00
69306;BME280;56427;51.580;4.656;2022-12-10T04:36:49;100883.13;;;-2.19;100.00
69306;BME280;56427;51.580;4.656;2022-12-10T04:39:15;100886.72;;;-2.26;100.00
69306;BME280;56427;51.580;4.656;2022-12-10T04:41:42;100886.38;;;-2.44;100.00
69306;BME280;56427;51.580;4.656;2022-12-10T04:44:09;100885.53;;;-2.44;100.00
69306;BME280;56427;51.580;4.656;2022-12-10T04:46:35;100894.56;;;-2.34;100.00
69306;BME280;56427;51.580;4.656;2022-12-10T04:49:01;100894.66;;;-2.37;100.00
69306;BME280;56427;51.580;4.656;2022-12-10T04:51:26;100908.66;;;-2.22;100.00
69306;BME280;56427;51.580;4.656;2022-12-10T04:53:53;100896.25;;;-2.33;100.00
69306;BME280;56427;51.580;4.656;2022-12-10T04:56:18;100903.88;;;-2.33;100.00
69306;BME280;56427;51.580;4.656;2022-12-10T04:58:44;100908.50;;;-2.47;100.00
69306;BME280;56427;51.580;4.656;2022-12-10T05:01:10;100900.75;;;-2.43;100.00
69306;BME280;56427;51.580;4.656;2022-12-10T05:03:36;100902.47;;;-2.43;100.00
69306;BME280;56427;51.580;4.656;2022-12-10T05:06:03;100904.13;;;-2.42;100.00
69306;BME280;56427;51.580;4.656;2022-12-10T05:08:28;100898.69;;;-2.60;100.00
69306;BME280;56427;51.580;4.656;2022-12-10T05:10:54;100901.31;;;-2.63;100.00
69306;BME280;56427;51.580;4.656;2022-12-10T05:13:20;100899.34;;;-2.53;100.00
69306;BME280;56427;51.580;4.656;2022-12-10T05:15:46;100902.44;;;-2.42;100.00
69306;BME280;56427;51.580;4.656;2022-12-10T05:18:11;100896.41;;;-2.39;100.00
69306;BME280;56427;51.580;4.656;2022-12-10T05:20:37;100899.72;;;-2.37;100.00
69306;BME280;56427;51.580;4.656;2022-12-10T05:23:02;100907.22;;;-2.32;100.00
69306;BME280;56427;51.580;4.656;2022-12-10T05:25:46;100908.78;;;-2.27;100.00
69306;BME280;56427;51.580;4.656;2022-12-10T05:28:21;100903.03;;;-2.33;100.00
69306;BME280;56427;51.580;4.656;2022-12-10T05:30:48;100896.16;;;-2.30;100.00
69306;BME280;56427;51.580;4.656;2022-12-10T05:33:14;100894.94;;;-2.16;100.00
69306;BME280;56427;51.580;4.656;2022-12-10T05:35:39;100891.94;;;-2.31;100.00
69306;BME280;56427;51.580;4.656;2022-12-10T05:38:04;100890.34;;;-2.33;100.00
69306;BME280;56427;51.580;4.656;2022-12-10T05:40:34;100888.13;;;-2.46;100.00
69306;BME280;56427;51.580;4.656;2022-12-10T05:42:59;100893.09;;;-2.41;100.00
69306;BME280;56427;51.580;4.656;2022-12-10T05:45:24;100898.91;;;-2.37;100.00
69306;BME280;56427;51.580;4.656;2022-12-10T05:47:50;100894.59;;;-2.35;100.00
69306;BME280;56427;51.580;4.656;2022-12-10T05:50:15;100893.91;;;-2.41;100.00
69306;BME280;56427;51.580;4.656;2022-12-10T05:52:40;100899.72;;;-2.37;100.00
69306;BME280;56427;51.580;4.656;2022-12-10T05:55:06;100901.13;;;-2.25;100.00
69306;BME280;56427;51.580;4.656;2022-12-10T05:57:31;100902.06;;;-2.29;100.00
69306;BME280;56427;51.580;4.656;2022-12-10T05:59:56;100906.28;;;-2.28;100.00
69306;BME280;56427;51.580;4.656;2022-12-10T06:02:22;100910.66;;;-2.33;100.00
69306;BME280;56427;51.580;4.656;2022-12-10T06:04:47;100914.28;;;-2.12;100.00
69306;BME280;56427;51.580;4.656;2022-12-10T06:07:13;100917.41;;;-2.32;100.00
69306;BME280;56427;51.580;4.656;2022-12-10T06:09:38;100917.16;;;-2.23;100.00
69306;BME280;56427;51.580;4.656;2022-12-10T06:12:04;100916.75;;;-2.39;100.00
69306;BME280;56427;51.580;4.656;2022-12-10T06:14:30;100910.00;;;-2.40;100.00
69306;BME280;56427;51.580;4.656;2022-12-10T06:16:55;100912.63;;;-2.43;100.00
69306;BME280;56427;51.580;4.656;2022-12-10T06:19:20;100907.50;;;-2.42;100.00
69306;BME280;56427;51.580;4.656;2022-12-10T06:21:46;100910.78;;;-2.38;100.00
69306;BME280;56427;51.580;4.656;2022-12-10T06:24:11;100907.28;;;-2.34;100.00
69306;BME280;56427;51.580;4.656;2022-12-10T06:26:36;100917.41;;;-2.32;100.00
69306;BME280;56427;51.580;4.656;2022-12-10T06:29:02;100921.50;;;-2.27;100.00
69306;BME280;56427;51.580;4.656;2022-12-10T06:31:29;100926.59;;;-2.27;100.00
69306;BME280;56427;51.580;4.656;2022-12-10T06:33:55;100922.75;;;-2.42;100.00
69306;BME280;56427;51.580;4.656;2022-12-10T06:36:20;100924.03;;;-2.27;100.00
69306;BME280;56427;51.580;4.656;2022-12-10T06:38:46;100917.47;;;-2.35;100.00
69306;BME280;56427;51.580;4.656;2022-12-10T06:41:17;100918.75;;;-2.20;100.00
69306;BME280;56427;51.580;4.656;2022-12-10T06:43:43;100919.94;;;-2.32;100.00
69306;BME280;56427;51.580;4.656;2022-12-10T06:46:12;100924.41;;;-2.41;100.00
69306;BME280;56427;51.580;4.656;2022-12-10T06:48:38;100926.38;;;-2.50;100.00
69306;BME280;56427;51.580;4.656;2022-12-10T06:51:05;100921.38;;;-2.53;100.00
69306;BME280;56427;51.580;4.656;2022-12-10T06:53:35;100932.97;;;-2.43;100.00
69306;BME280;56427;51.580;4.656;2022-12-10T06:56:02;100928.88;;;-2.49;100.00
69306;BME280;56427;51.580;4.656;2022-12-10T06:58:29;100935.66;;;-2.49;100.00
69306;BME280;56427;51.580;4.656;2022-12-10T07:01:02;100930.00;;;-2.28;100.00
69306;BME280;56427;51.580;4.656;2022-12-10T07:03:28;100939.97;;;-2.51;100.00
69306;BME280;56427;51.580;4.656;2022-12-10T07:05:57;100941.50;;;-2.46;100.00
69306;BME280;56427;51.580;4.656;2022-12-10T07:08:22;100940.78;;;-2.51;100.00
69306;BME280;56427;51.580;4.656;2022-12-10T07:10:48;100939.03;;;-2.49;100.00
69306;BME280;56427;51.580;4.656;2022-12-10T07:13:13;100942.38;;;-2.47;100.00
69306;BME280;56427;51.580;4.656;2022-12-10T07:15:39;100945.31;;;-2.31;100.00
69306;BME280;56427;51.580;4.656;2022-12-10T07:18:08;100947.22;;;-2.37;100.00
69306;BME280;56427;51.580;4.656;2022-12-10T07:20:33;100944.25;;;-2.22;100.00
69306;BME280;56427;51.580;4.656;2022-12-10T07:22:59;100951.34;;;-2.33;100.00
69306;BME280;56427;51.580;4.656;2022-12-10T07:25:24;100950.69;;;-2.40;100.00
69306;BME280;56427;51.580;4.656;2022-12-10T07:27:49;100951.50;;;-2.39;100.00
69306;BME280;56427;51.580;4.656;2022-12-10T07:30:15;100953.19;;;-2.38;100.00
69306;BME280;56427;51.580;4.656;2022-12-10T07:32:40;100956.50;;;-2.36;100.00
69306;BME280;56427;51.580;4.656;2022-12-10T07:35:06;100964.22;;;-2.39;100.00
69306;BME280;56427;51.580;4.656;2022-12-10T07:37:33;100972.38;;;-2.28;100.00
69306;BME280;56427;51.580;4.656;2022-12-10T07:39:58;100962.63;;;-2.44;100.00
69306;BME280;56427;51.580;4.656;2022-12-10T07:42:24;100965.38;;;-2.20;100.00
69306;BME280;56427;51.580;4.656;2022-12-10T07:44:49;100965.63;;;-2.29;100.00
69306;BME280;56427;51.580;4.656;2022-12-10T07:47:14;100972.50;;;-2.33;100.00
69306;BME280;56427;51.580;4.656;2022-12-10T07:49:40;100971.16;;;-2.46;100.00
69306;BME280;56427;51.580;4.656;2022-12-10T07:52:05;100979.03;;;-2.24;100.00
69306;BME280;56427;51.580;4.656;2022-12-10T07:54:31;100981.31;;;-2.45;100.00
69306;BME280;56427;51.580;4.656;2022-12-10T07:56:56;100980.44;;;-2.45;100.00
69306;BME280;56427;51.580;4.656;2022-12-10T07:59:21;100975.31;;;-2.44;100.00
69306;BME280;56427;51.580;4.656;2022-12-10T08:01:47;100985.09;;;-2.28;100.00
69306;BME280;56427;51.580;4.656;2022-12-10T08:04:14;100991.81;;;-2.27;100.00
69306;BME280;56427;51.580;4.656;2022-12-10T08:06:40;100988.97;;;-2.15;100.00
69306;BME280;56427;51.580;4.656;2022-12-10T08:09:05;100987.63;;;-2.28;100.00
69306;BME280;56427;51.580;4.656;2022-12-10T08:11:31;100987.69;;;-2.30;100.00
69306;BME280;56427;51.580;4.656;2022-12-10T08:13:57;100990.91;;;-2.56;100.00
69306;BME280;56427;51.580;4.656;2022-12-10T08:16:26;100986.38;;;-2.45;100.00
69306;BME280;56427;51.580;4.656;2022-12-10T08:18:52;100988.69;;;-2.37;100.00
69306;BME280;56427;51.580;4.656;2022-12-10T08:21:20;100997.22;;;-2.38;100.00
69306;BME280;56427;51.580;4.656;2022-12-10T08:23:47;100989.56;;;-2.36;100.00
69306;BME280;56427;51.580;4.656;2022-12-10T08:26:15;100998.38;;;-2.50;100.00
69306;BME280;56427;51.580;4.656;2022-12-10T08:28:41;100996.88;;;-2.26;100.00
69306;BME280;56427;51.580;4.656;2022-12-10T08:31:08;101003.13;;;-2.37;100.00
69306;BME280;56427;51.580;4.656;2022-12-10T08:33:35;101003.56;;;-2.22;100.00
69306;BME280;56427;51.580;4.656;2022-12-10T08:36:02;101005.31;;;-2.24;100.00
69306;BME280;56427;51.580;4.656;2022-12-10T08:38:29;101016.47;;;-2.29;100.00
69306;BME280;56427;51.580;4.656;2022-12-10T08:40:55;101016.28;;;-2.22;100.00
69306;BME280;56427;51.580;4.656;2022-12-10T08:43:21;101027.34;;;-2.24;100.00
69306;BME280;56427;51.580;4.656;2022-12-10T08:45:46;101038.75;;;-2.39;100.00
69306;BME280;56427;51.580;4.656;2022-12-10T08:48:12;101032.91;;;-2.43;100.00
69306;BME280;56427;51.580;4.656;2022-12-10T08:50:38;101036.16;;;-2.37;100.00
69306;BME280;56427;51.580;4.656;2022-12-10T08:53:03;101030.50;;;-2.47;100.00
69306;BME280;56427;51.580;4.656;2022-12-10T08:55:29;101037.84;;;-2.36;100.00
69306;BME280;56427;51.580;4.656;2022-12-10T08:57:56;101026.31;;;-2.48;100.00
69306;BME280;56427;51.580;4.656;2022-12-10T09:00:21;101029.34;;;-2.35;100.00
69306;BME280;56427;51.580;4.656;2022-12-10T09:02:47;101030.81;;;-2.60;100.00
69306;BME280;56427;51.580;4.656;2022-12-10T09:05:12;101036.47;;;-2.48;100.00
69306;BME280;56427;51.580;4.656;2022-12-10T09:07:38;101034.53;;;-2.38;100.00
69306;BME280;56427;51.580;4.656;2022-12-10T09:10:03;101027.56;;;-2.32;100.00
69306;BME280;56427;51.580;4.656;2022-12-10T09:12:29;101029.06;;;-2.25;100.00
69306;BME280;56427;51.580;4.656;2022-12-10T09:14:54;101032.50;;;-2.60;100.00
69306;BME280;56427;51.580;4.656;2022-12-10T09:17:21;101023.50;;;-2.39;100.00
69306;BME280;56427;51.580;4.656;2022-12-10T09:19:46;101028.59;;;-2.39;100.00
69306;BME280;56427;51.580;4.656;2022-12-10T09:22:12;101027.31;;;-2.55;100.00
69306;BME280;56427;51.580;4.656;2022-12-10T09:24:38;101022.34;;;-2.27;100.00
69306;BME280;56427;51.580;4.656;2022-12-10T09:27:03;101020.91;;;-2.37;100.00
69306;BME280;56427;51.580;4.656;2022-12-10T09:29:29;101018.03;;;-2.24;100.00
69306;BME280;56427;51.580;4.656;2022-12-10T09:31:54;101033.63;;;-2.37;100.00
69306;BME280;56427;51.580;4.656;2022-12-10T09:34:20;101036.09;;;-2.03;100.00
69306;BME280;56427;51.580;4.656;2022-12-10T09:36:46;101036.63;;;-2.22;100.00
69306;BME280;56427;51.580;4.656;2022-12-10T09:39:11;101061.22;;;-2.22;100.00
69306;BME280;56427;51.580;4.656;2022-12-10T09:41:52;101057.25;;;-2.34;100.00
69306;BME280;56427;51.580;4.656;2022-12-10T09:47:08;101055.03;;;-2.46;100.00
69306;BME280;56427;51.580;4.656;2022-12-10T09:49:47;101046.34;;;-2.37;100.00
69306;BME280;56427;51.580;4.656;2022-12-10T09:52:16;101052.19;;;-2.34;100.00
69306;BME280;56427;51.580;4.656;2022-12-10T09:54:47;101064.84;;;-2.32;100.00
69306;BME280;56427;51.580;4.656;2022-12-10T09:57:45;101054.56;;;-2.28;100.00
69306;BME280;56427;51.580;4.656;2022-12-10T10:00:39;101054.97;;;-2.43;100.00
69306;BME280;56427;51.580;4.656;2022-12-10T10:03:04;101063.75;;;-2.22;100.00
69306;BME280;56427;51.580;4.656;2022-12-10T10:05:35;101055.53;;;-2.32;100.00
69306;BME280;56427;51.580;4.656;2022-12-10T10:08:04;101052.69;;;-2.21;100.00
69306;BME280;56427;51.580;4.656;2022-12-10T10:13:10;101061.16;;;-2.20;100.00
69306;BME280;56427;51.580;4.656;2022-12-10T10:15:40;101071.31;;;-2.20;100.00
69306;BME280;56427;51.580;4.656;2022-12-10T10:20:57;101066.34;;;-2.24;100.00
69306;BME280;56427;51.580;4.656;2022-12-10T10:23:23;101060.09;;;-2.12;100.00
69306;BME280;56427;51.580;4.656;2022-12-10T10:25:48;101064.31;;;-2.12;100.00
69306;BME280;56427;51.580;4.656;2022-12-10T10:28:19;101068.13;;;-1.96;100.00
69306;BME280;56427;51.580;4.656;2022-12-10T10:30:44;101073.59;;;-2.10;100.00
69306;BME280;56427;51.580;4.656;2022-12-10T10:33:12;101076.38;;;-2.19;100.00
69306;BME280;56427;51.580;4.656;2022-12-10T10:35:47;101069.94;;;-2.01;100.00
69306;BME280;56427;51.580;4.656;2022-12-10T10:38:17;101071.19;;;-1.85;100.00
69306;BME280;56427;51.580;4.656;2022-12-10T10:40:45;101071.53;;;-1.65;100.00
69306;BME280;56427;51.580;4.656;2022-12-10T10:43:19;101069.34;;;-1.79;100.00
69306;BME280;56427;51.580;4.656;2022-12-10T10:46:15;101061.59;;;-1.75;100.00
69306;BME280;56427;51.580;4.656;2022-12-10T10:48:42;101064.06;;;-1.72;100.00
69306;BME280;56427;51.580;4.656;2022-12-10T10:53:45;101065.22;;;-1.82;100.00
69306;BME280;56427;51.580;4.656;2022-12-10T10:59:05;101059.81;;;-1.71;100.00
69306;BME280;56427;51.580;4.656;2022-12-10T11:01:47;101073.97;;;-1.61;100.00
69306;BME280;56427;51.580;4.656;2022-12-10T11:04:16;101067.31;;;-1.67;100.00
69306;BME280;56427;51.580;4.656;2022-12-10T11:06:43;101066.59;;;-1.72;100.00
69306;BME280;56427;51.580;4.656;2022-12-10T11:09:20;101069.94;;;-1.70;100.00
69306;BME280;56427;51.580;4.656;2022-12-10T11:11:50;101066.19;;;-1.56;100.00
69306;BME280;56427;51.580;4.656;2022-12-10T11:14:24;101065.78;;;-1.42;100.00
69306;BME280;56427;51.580;4.656;2022-12-10T11:16:50;101066.56;;;-1.40;100.00
69306;BME280;56427;51.580;4.656;2022-12-10T11:19:23;101063.31;;;-1.45;100.00
69306;BME280;56427;51.580;4.656;2022-12-10T11:21:51;101058.69;;;-1.61;100.00
69306;BME280;56427;51.580;4.656;2022-12-10T11:24:18;101060.25;;;-1.57;100.00
69306;BME280;56427;51.580;4.656;2022-12-10T11:29:28;101058.84;;;-1.37;100.00
69306;BME280;56427;51.580;4.656;2022-12-10T11:32:23;101059.25;;;-1.23;100.00
69306;BME280;56427;51.580;4.656;2022-12-10T11:34:57;101058.75;;;-1.34;100.00
69306;BME280;56427;51.580;4.656;2022-12-10T11:40:24;101053.50;;;-1.58;100.00
69306;BME280;56427;51.580;4.656;2022-12-10T11:45:22;101055.28;;;-1.61;100.00
69306;BME280;56427;51.580;4.656;2022-12-10T11:50:46;101044.53;;;-1.41;100.00
69306;BME280;56427;51.580;4.656;2022-12-10T11:53:50;101047.78;;;-1.36;100.00
69306;BME280;56427;51.580;4.656;2022-12-10T12:10:11;101052.66;;;-1.30;100.00
69306;BME280;56427;51.580;4.656;2022-12-10T12:12:41;101062.97;;;-1.05;100.00
69306;BME280;56427;51.580;4.656;2022-12-10T12:15:24;101053.69;;;-1.07;100.00
69306;BME280;56427;51.580;4.656;2022-12-10T12:18:09;101053.25;;;-1.22;100.00
69306;BME280;56427;51.580;4.656;2022-12-10T12:20:46;101055.06;;;-0.97;100.00
69306;BME280;56427;51.580;4.656;2022-12-10T12:23:19;101050.69;;;-1.20;100.00
69306;BME280;56427;51.580;4.656;2022-12-10T12:25:50;101055.50;;;-1.11;100.00
69306;BME280;56427;51.580;4.656;2022-12-10T12:28:27;101048.22;;;-0.95;100.00
69306;BME280;56427;51.580;4.656;2022-12-10T12:31:22;101054.41;;;-1.04;100.00
69306;BME280;56427;51.580;4.656;2022-12-10T12:36:38;101050.13;;;-1.02;100.00
69306;BME280;56427;51.580;4.656;2022-12-10T12:47:48;101043.75;;;-1.15;100.00
69306;BME280;56427;51.580;4.656;2022-12-10T12:50:30;101049.59;;;-0.85;100.00
69306;BME280;56427;51.580;4.656;2022-12-10T12:53:00;101045.56;;;-0.92;100.00
69306;BME280;56427;51.580;4.656;2022-12-10T12:55:50;101051.44;;;-0.90;100.00
69306;BME280;56427;51.580;4.656;2022-12-10T12:58:40;101057.03;;;-0.79;100.00
69306;BME280;56427;51.580;4.656;2022-12-10T13:01:40;101057.03;;;-0.79;100.00
69306;BME280;56427;51.580;4.656;2022-12-10T13:04:07;101062.38;;;-0.86;100.00
69306;BME280;56427;51.580;4.656;2022-12-10T13:06:35;101053.41;;;-0.71;100.00
69306;BME280;56427;51.580;4.656;2022-12-10T13:11:44;101063.75;;;-1.03;100.00
69306;BME280;56427;51.580;4.656;2022-12-10T13:14:54;101060.81;;;-0.90;100.00
69306;BME280;56427;51.580;4.656;2022-12-10T13:17:37;101069.84;;;-0.80;100.00
69306;BME280;56427;51.580;4.656;2022-12-10T13:22:57;101071.78;;;-0.88;100.00
69306;BME280;56427;51.580;4.656;2022-12-10T13:28:27;101073.19;;;-0.80;100.00
69306;BME280;56427;51.580;4.656;2022-12-10T13:31:06;101071.66;;;-0.84;100.00
69306;BME280;56427;51.580;4.656;2022-12-10T13:41:31;101072.00;;;-0.69;100.00
69306;BME280;56427;51.580;4.656;2022-12-10T13:44:39;101068.31;;;-0.59;100.00
69306;BME280;56427;51.580;4.656;2022-12-10T13:49:53;101070.09;;;-0.63;100.00
69306;BME280;56427;51.580;4.656;2022-12-10T13:52:25;101074.31;;;-0.62;100.00
69306;BME280;56427;51.580;4.656;2022-12-10T13:57:34;101076.25;;;-0.68;100.00
69306;BME280;56427;51.580;4.656;2022-12-10T14:00:18;101080.84;;;-0.80;100.00
69306;BME280;56427;51.580;4.656;2022-12-10T14:08:34;101085.25;;;-0.58;100.00
69306;BME280;56427;51.580;4.656;2022-12-10T14:11:05;101081.69;;;-0.52;100.00
69306;BME280;56427;51.580;4.656;2022-12-10T14:13:47;101083.00;;;-0.41;100.00
69306;BME280;56427;51.580;4.656;2022-12-10T14:16:21;101087.22;;;-0.66;100.00
69306;BME280;56427;51.580;4.656;2022-12-10T14:19:04;101090.53;;;-0.64;100.00
69306;BME280;56427;51.580;4.656;2022-12-10T14:21:33;101083.69;;;-0.62;100.00
69306;BME280;56427;51.580;4.656;2022-12-10T14:23:59;101082.78;;;-0.61;100.00
69306;BME280;56427;51.580;4.656;2022-12-10T14:26:32;101096.03;;;-0.50;100.00